Weather reports worldwide

Advertisment
Feldberg/Schwarzwald, Germany (10908): temperature & dewpoint: 06.11.2019 16:00:00 - 12.11.2019 16:00:00 (CET)Feldberg/Schwarzwald, Germany (10908): temperature 5cm & temperature -5cm: 06.11.2019 16:00:00 - 12.11.2019 16:00:00 (CET)Feldberg/Schwarzwald, Germany (10908): temperature -20cm & temperature -100cm: 06.11.2019 16:00:00 - 12.11.2019 16:00:00 (CET)Feldberg/Schwarzwald, Germany (10908): wind speed & gusts: 06.11.2019 16:00:00 - 12.11.2019 16:00:00 (CET)Feldberg/Schwarzwald, Germany (10908): wind direction: 06.11.2019 16:00:00 - 12.11.2019 16:00:00 (CET)Feldberg/Schwarzwald, Germany (10908): visibility: 06.11.2019 16:00:00 - 12.11.2019 16:00:00 (CET)Feldberg/Schwarzwald, Germany (10908): precipitation: 06.11.2019 16:00:00 - 12.11.2019 16:00:00 (CET)
Date & Time tt [°C] td [°C] tt 5cm [°C] tt -5cm [°C] tt -20cm [°C] tt -100cm [°C] ff [km/h] ff [kn] fx [km/h] fx [kn] dd vv [km] rr [mm]
12.11.2019 16:00:00 -2,9 -3,4 -0,8 0,5 1,7 6,2 26 14 44 24 SW 0,2 0,1
12.11.2019 15:00:00 -3,0 -3,5 -0,6 0,4 1,7 6,2 29 16 63 34 SW 0,1 0,0
12.11.2019 14:00:00 -3,2 -3,8 -0,6 0,5 1,7 6,2 34 19 54 29 SW 0,1 0,0
12.11.2019 13:00:00 -3,6 -4,2 -0,6 0,4 1,7 6,2 33 18 54 29 SW 0,1 0,0
12.11.2019 12:00:00 -3,9 -4,6 -0,5 0,4 1,7 6,2 36 19 57 31 SW 0,1 0,0
12.11.2019 11:00:00 -4,1 -4,8 -0,7 0,4 1,7 6,2 46 25 70 38 SSW 0,1 0,0
12.11.2019 10:00:00 -4,2 -4,9 -0,8 0,4 1,7 6,2 54 29 71 38 SW 0,1 0,0
12.11.2019 09:00:00 -4,3 -5,0 -0,8 0,4 1,7 6,2 53 29 65 35 SSW 0,1 0,0
12.11.2019 08:00:00 -4,0 -4,6 -1,0 0,4 1,7 6,2 44 24 59 32 SW 0,1 0,0
12.11.2019 07:00:00 -4,0 -4,7 -1,0 0,4 1,7 6,2 41 22 52 28 WSW 0,2 0,0
12.11.2019 06:00:00 -4,2 -4,9 -1,0 0,4 1,7 6,2 37 20 51 28 WSW 0,3 0,0
12.11.2019 05:00:00 -4,1 -4,8 -0,9 0,4 1,7 6,2 42 23 58 32 WSW 0,3 0,0
12.11.2019 04:00:00 -3,9 -4,4 -0,8 0,4 1,7 6,3 37 20 55 30 WSW 0,1 0,0
12.11.2019 03:00:00 -3,3 -3,8 -0,8 0,4 1,7 6,3 42 23 64 35 WSW 0,2 0,0
12.11.2019 02:00:00 -3,2 -3,6 -0,6 0,4 1,7 6,3 42 23 55 30 WSW 0,1 0,3
12.11.2019 01:00:00 -2,5 -2,7 -0,6 0,4 1,7 6,3 35 19 56 31 W 0,1 0,7
12.11.2019 00:00:00 -2,3 -2,4 -0,7 0,4 1,7 6,3 36 19 56 30 WSW - 0,2
11.11.2019 23:00:00 -2,4 -2,5 -0,8 0,4 1,7 6,3 44 24 68 37 WSW 0,1 1,3
11.11.2019 22:00:00 -2,5 -2,8 -1,1 0,4 1,7 6,3 52 28 77 41 SW 0,1 2,2
11.11.2019 21:00:00 -2,8 -3,3 -1,3 0,4 1,7 6,3 47 25 59 32 SSW 0,1 0,5
11.11.2019 20:00:00 -2,8 -3,3 -1,6 0,4 1,7 6,3 45 24 59 32 SSW 11 0,0
11.11.2019 19:00:00 -2,8 -3,3 -1,7 0,4 1,7 6,3 48 26 59 32 SW 0,2 0,0
11.11.2019 18:00:00 -3,2 -4,3 -1,7 0,4 1,7 6,3 46 25 62 33 SW 58 0,0
11.11.2019 17:00:00 -3,2 -3,9 -1,3 0,4 1,7 6,3 48 26 59 32 SW 8 0,0
11.11.2019 16:00:00 -2,9 -4,3 -1,0 0,4 1,7 6,3 46 25 68 37 WSW 43 0,0
11.11.2019 15:00:00 -2,5 -4,2 -0,7 0,4 1,7 6,3 52 28 61 33 SW 52 0,0
11.11.2019 14:00:00 -3,0 -4,5 -0,4 0,4 1,8 6,4 42 23 47 25 SSW 75 0,0
11.11.2019 13:00:00 -2,0 -3,8 -0,3 0,4 1,8 6,4 36 20 42 23 SSW 54 0,0
11.11.2019 12:00:00 -1,5 -2,9 -1,4 0,4 1,8 6,4 22 12 25 14 S 65 0,0
11.11.2019 11:00:00 -0,8 -3,1 -2,8 0,4 1,8 6,4 14 8 21 11 S 75 0,0
11.11.2019 10:00:00 -1,1 -5,2 -4,4 0,4 1,8 6,4 16 9 28 15 SSE 75 0,0
11.11.2019 09:00:00 -1,4 -5,6 -5,9 0,4 1,8 6,4 23 12 24 13 ESE 75 0,0
11.11.2019 08:00:00 -2,4 -4,7 -7,1 0,4 1,8 6,4 16 8 18 10 SSE 75 0,0
11.11.2019 07:00:00 -2,4 -5,3 -6,9 0,4 1,8 6,4 5 3 16 9 NW 75 0,0
11.11.2019 06:00:00 -2,4 -5,9 -6,7 0,4 1,8 6,4 4 2 9 5 S 72 0,0
11.11.2019 05:00:00 -2,0 -4,4 -6,4 0,4 1,8 6,4 5 3 15 8 E 75 0,0
11.11.2019 04:00:00 -1,1 -7,5 -6,7 0,4 1,8 6,4 12 7 21 11 SSE 75 0,0
11.11.2019 03:00:00 -2,1 -4,0 -6,4 0,4 1,8 6,4 7 4 10 5 SE 65 0,0
11.11.2019 02:00:00 -2,0 -3,6 -5,8 0,4 1,8 6,4 5 3 10 5 NE 75 0,0
11.11.2019 01:00:00 -2,5 -3,3 -5,7 0,4 1,8 6,5 9 5 11 6 NNE 1,2 0,0
11.11.2019 00:00:00 -2,5 -3,3 -6,2 0,4 1,8 6,5 8 4 10 5 NNE 75 0,0
10.11.2019 23:00:00 -2,3 -3,2 -6,6 0,4 1,8 6,5 5 3 9 5 NW 75 0,0
10.11.2019 22:00:00 -1,8 -2,8 -6,2 0,4 1,8 6,5 7 4 11 6 SSE 38 0,0
10.11.2019 21:00:00 -2,1 -3,0 -6,0 0,5 1,8 6,5 8 5 10 6 S 53 0,0
10.11.2019 20:00:00 -1,9 -3,0 -5,5 0,5 1,8 6,5 0 0 14 8 N 75 0,0
10.11.2019 19:00:00 -2,0 -3,0 -5,0 0,5 1,9 6,5 13 7 21 11 ESE 42 0,0
10.11.2019 18:00:00 -1,5 -3,1 -4,0 0,5 1,9 6,5 5 3 6 4 E 71 0,0
10.11.2019 17:00:00 -1,0 -2,2 -2,8 0,5 1,9 6,5 4 2 5 3 NE 75 0,0
10.11.2019 16:00:00 -0,8 -1,3 0,0 0,5 1,9 6,5 4 2 8 5 S 75 0,0
10.11.2019 15:00:00 -0,3 -0,6 0,1 0,5 1,9 6,5 5 3 7 4 NW 75 0,0
10.11.2019 14:00:00 -1,0 -1,5 0,1 0,5 1,9 6,5 3 2 8 5 S 47 0,0
10.11.2019 13:00:00 -1,4 -1,8 0,0 0,5 1,9 6,5 8 4 18 10 SSW 54 0,0
10.11.2019 12:00:00 -2,1 -3,1 -0,6 0,5 1,9 6,5 16 9 22 12 SSW 54 0,0
10.11.2019 11:00:00 -2,4 -3,4 -1,6 0,5 1,9 6,6 19 11 25 14 SW 50 0,0
10.11.2019 10:00:00 -2,9 -4,2 -2,7 0,5 1,9 6,6 21 12 39 21 SW 59 0,0
10.11.2019 09:00:00 -2,9 -4,3 -3,2 0,5 1,9 6,6 26 14 31 17 SSW 75 0,0
10.11.2019 08:00:00 -3,5 -5,0 -3,5 0,5 1,9 6,6 27 15 35 19 SSW 62 0,0
10.11.2019 07:00:00 -3,4 -5,5 -3,6 0,5 1,9 6,6 29 15 37 20 S 70 0,0
10.11.2019 06:00:00 -3,3 -5,4 -3,8 0,5 1,9 6,6 25 13 36 19 S 75 0,0
10.11.2019 05:00:00 -3,5 -6,0 -4,0 0,5 1,9 6,6 28 15 40 22 SSE 75 0,0
10.11.2019 04:00:00 -3,5 -6,4 -4,0 0,5 1,9 6,6 29 16 39 21 SSE 67 0,0
10.11.2019 03:00:00 -3,4 -5,2 -3,9 0,5 1,9 6,6 25 14 32 18 SSE 48 0,0
10.11.2019 02:00:00 -3,7 -4,8 -4,0 0,5 1,9 6,6 25 13 36 19 S 44 0,0
10.11.2019 01:00:00 -3,7 -4,8 -4,2 0,5 1,9 6,6 23 13 28 15 S 48 0,0
10.11.2019 00:00:00 -3,3 -4,5 -4,5 0,5 1,9 6,6 23 12 29 15 S 53 0,0
09.11.2019 23:00:00 -3,1 -3,9 -4,4 0,5 1,9 6,6 16 9 19 10 SSE 40 0,0
09.11.2019 22:00:00 -3,4 -4,1 -4,0 0,5 1,9 6,7 14 8 19 11 S 44 0,0
09.11.2019 21:00:00 -3,6 -4,4 -3,6 0,5 2,0 6,7 18 10 22 12 SSW 63 0,0
09.11.2019 20:00:00 -3,3 -4,0 -3,1 0,5 2,0 6,7 20 11 25 13 S 44 0,0
09.11.2019 19:00:00 -3,0 -3,6 -2,4 0,5 2,0 6,7 17 9 26 14 SSW 17 0,0
09.11.2019 18:00:00 -2,9 -3,7 -1,7 0,5 2,0 6,7 21 12 29 16 SSW 43 0,0
09.11.2019 17:00:00 -2,5 -3,0 -0,9 0,5 2,0 6,7 19 10 29 16 SSW 0,3 0,0
09.11.2019 16:00:00 -2,6 -3,3 -0,5 0,5 2,0 6,7 23 13 34 19 SW 63 0,0
09.11.2019 15:00:00 -2,6 -3,3 -0,2 0,5 2,0 6,7 24 13 37 20 W 54 0,0
09.11.2019 14:00:00 -2,2 -2,7 -0,1 0,5 2,0 6,7 24 13 31 17 WSW 8 0,0
09.11.2019 13:00:00 -2,1 -2,6 -0,1 0,5 2,0 6,7 18 10 34 19 SW 0,1 0,0
09.11.2019 12:00:00 -2,1 -2,6 -0,4 0,5 2,0 6,7 21 12 32 17 WSW 0,1 0,0
09.11.2019 11:00:00 -2,5 -3,1 -0,7 0,5 2,0 6,7 29 16 34 18 SW 43 0,0
09.11.2019 10:00:00 -2,6 -3,2 -1,1 0,5 2,0 6,8 19 11 27 14 SW 27 0,0
09.11.2019 09:00:00 -2,8 -3,6 -1,5 0,5 2,0 6,8 26 14 31 17 WSW 61 0,0
09.11.2019 08:00:00 -2,7 -3,3 -1,8 0,5 2,0 6,8 18 10 26 14 WSW 16 0,0
09.11.2019 07:00:00 -2,8 -3,5 -1,8 0,5 2,0 6,8 19 10 29 15 W 33 0,0
09.11.2019 06:00:00 -2,8 -3,4 -2,1 0,5 2,1 6,8 17 9 26 14 W 2,1 0,0
09.11.2019 05:00:00 -2,8 -3,4 -2,5 0,5 2,1 6,8 18 10 23 12 W 5 0,0
09.11.2019 04:00:00 -2,9 -3,3 -2,6 0,5 2,1 6,8 15 8 21 11 WNW 24 0,0
09.11.2019 03:00:00 -2,9 -3,3 -1,9 0,5 2,1 6,8 15 8 25 14 NW 0,2 0,0
09.11.2019 02:00:00 -2,8 -3,2 -1,3 0,5 2,1 6,8 21 11 25 13 NNW 41 0,0
09.11.2019 01:00:00 -2,7 -3,1 -1,1 0,5 2,1 6,8 19 11 22 12 NW 0,3 0,0
09.11.2019 00:00:00 -2,7 -3,0 -1,1 0,5 2,1 6,8 15 8 23 12 NNW 0,1 0,1
08.11.2019 23:00:00 -2,8 -3,2 -1,2 0,5 2,1 6,8 20 11 31 17 N 0,1 0,1
08.11.2019 22:00:00 -3,0 -3,5 -1,2 0,5 2,1 6,9 18 10 32 18 NNE 0,1 0,0
08.11.2019 21:00:00 -2,9 -3,3 -1,2 0,5 2,1 6,9 25 14 51 28 N 0,1 0,1
08.11.2019 20:00:00 -2,9 -3,3 -1,2 0,5 2,1 6,9 22 12 39 21 NNW 0,1 0,8
08.11.2019 19:00:00 -2,7 -3,1 -1,2 0,5 2,1 6,9 24 13 33 18 NNW 0,1 1,1
08.11.2019 18:00:00 -2,6 -3,0 -1,3 0,6 2,1 6,9 22 12 31 17 N 0,1 0,7
08.11.2019 17:00:00 -2,7 -3,2 -1,3 0,6 2,2 6,9 25 14 36 19 N 0,1 0,5
08.11.2019 16:00:00 -2,6 -3,1 -0,7 0,6 2,2 6,9 24 13 32 17 N 0,1 1,2
08.11.2019 15:00:00 -2,5 -3,0 -0,4 0,6 2,2 6,9 21 12 29 16 NNW 0,1 0,6
08.11.2019 14:00:00 -2,5 -3,0 -0,3 0,6 2,2 6,9 14 8 20 11 N 0,1 0,3
08.11.2019 13:00:00 -2,3 -2,7 -0,4 0,6 2,2 6,9 14 8 18 10 NW 0,1 0,6
08.11.2019 12:00:00 -2,3 -2,8 -1,3 0,6 2,2 6,9 12 6 20 11 N 0,1 0,0
08.11.2019 11:00:00 -2,3 -2,7 -1,0 0,5 2,2 6,9 16 9 24 13 NNE 0,1 0,4
08.11.2019 10:00:00 -2,5 -2,9 -1,1 0,5 2,2 7,0 18 10 29 16 NE 0,1 0,1
08.11.2019 09:00:00 -2,6 -3,0 -1,3 0,5 2,2 7,0 25 13 29 16 NE 0,1 0,1
08.11.2019 08:00:00 -2,6 -3,0 -2,2 0,5 2,2 7,0 23 12 29 16 NE 0,1 0,4
08.11.2019 07:00:00 -2,8 -3,3 -2,5 0,5 2,2 7,0 19 11 23 12 NE 0,2 0,7
08.11.2019 06:00:00 -2,7 -3,8 -2,5 0,5 2,2 7,0 7 4 14 7 N 1,9 0,1
08.11.2019 05:00:00 -2,4 -3,6 -2,3 0,5 2,2 7,0 9 5 12 7 ENE 32 0,0
08.11.2019 04:00:00 -2,5 -3,7 -2,3 0,5 2,2 7,0 3 2 16 9 NW 47 0,0
08.11.2019 03:00:00 -2,5 -3,4 -2,3 0,5 2,3 7,0 13 7 17 9 ESE 13 0,0
08.11.2019 02:00:00 -2,3 -3,3 -2,2 0,5 2,3 7,0 8 5 16 9 S 32 0,0
08.11.2019 01:00:00 -1,3 -1,6 -1,3 0,5 2,3 7,0 15 8 21 11 S 0,2 0,0
08.11.2019 00:00:00 -1,4 -1,7 -1,4 0,5 2,3 7,0 19 10 22 12 SSW 0,9 0,0
07.11.2019 23:00:00 -2,1 -2,7 -2,1 0,5 2,3 7,1 18 10 34 18 SW 48 0,0
07.11.2019 22:00:00 -2,0 -2,6 -1,9 0,5 2,3 7,1 30 16 42 23 SW 45 0,0
07.11.2019 21:00:00 -2,2 -2,9 -2,2 0,5 2,3 7,1 31 17 48 26 SW 45 0,0
07.11.2019 20:00:00 -1,9 -2,3 -1,6 0,5 2,3 7,1 37 20 54 29 SW 0,3 0,0
07.11.2019 19:00:00 -2,0 -2,5 -1,8 0,5 2,4 7,1 45 24 59 32 SW 1,4 0,0
07.11.2019 18:00:00 -1,8 -2,4 -1,6 0,6 2,4 7,1 42 23 64 35 SW 48 0,0
07.11.2019 17:00:00 -1,2 -1,6 -1,0 0,6 2,4 7,1 46 25 67 36 SW 0,2 0,0
07.11.2019 16:00:00 -0,4 -0,6 0,0 0,6 2,4 7,1 53 29 70 38 SW 0,1 0,5
07.11.2019 15:00:00 -0,1 -0,2 0,1 0,6 2,4 7,1 46 25 67 36 SW 0,1 1,3
07.11.2019 14:00:00 -0,3 -0,4 0,0 0,6 2,5 7,1 47 26 64 35 SSW 0,1 0,5
07.11.2019 13:00:00 -0,4 -0,5 -0,1 0,6 2,5 7,1 50 27 72 39 SSW 0,1 0,0
07.11.2019 12:00:00 -1,3 -1,4 -0,8 0,6 2,5 7,1 52 28 72 39 SSW 0,1 2,6
07.11.2019 11:00:00 -1,4 -1,7 -1,0 0,6 2,5 7,2 57 31 79 42 SSW 0,1 1,9
07.11.2019 10:00:00 -1,2 -1,8 -0,8 0,6 2,5 7,2 44 24 61 33 SSW 58 0,0
07.11.2019 09:00:00 -1,7 -2,2 -1,3 0,6 2,6 7,2 46 25 55 30 SSW 33 0,0
07.11.2019 08:00:00 -1,7 -2,3 -1,8 0,6 2,6 7,2 41 22 53 29 S 41 0,0
07.11.2019 07:00:00 -1,4 -2,0 -1,9 0,6 2,6 7,2 32 18 45 24 S 45 0,0
07.11.2019 06:00:00 -0,9 -1,2 -0,6 0,7 2,7 7,2 31 17 39 21 SSW 0,1 0,0
07.11.2019 05:00:00 -0,6 -0,8 -0,3 0,7 2,7 7,2 29 16 38 21 SSW 0,1 0,0
07.11.2019 04:00:00 -0,4 -0,6 -0,1 0,7 2,7 7,2 29 15 40 22 SSW 0,1 0,0
07.11.2019 03:00:00 -0,4 -0,6 -0,1 0,7 2,8 7,2 32 18 39 21 SSW 0,1 0,0
07.11.2019 02:00:00 -0,3 -0,5 0,0 0,7 2,8 7,2 24 13 36 19 SW 0,1 0,0
07.11.2019 01:00:00 -0,3 -0,5 0,0 0,7 2,9 7,2 31 17 40 22 WSW 0,1 0,2
07.11.2019 00:00:00 -0,2 -0,4 0,0 0,7 2,9 7,3 27 15 37 20 SSW - 0,5
06.11.2019 23:00:00 -0,1 -0,2 0,1 0,8 3,0 7,3 29 16 49 27 SW 0,1 0,8
06.11.2019 22:00:00 -0,2 -0,3 0,0 0,9 3,0 7,3 33 18 53 29 SW 0,1 0,2
06.11.2019 21:00:00 -0,1 -0,3 0,0 1,1 3,1 7,3 38 21 58 31 SW 0,1 0,0
06.11.2019 20:00:00 -0,1 -0,3 0,1 1,2 3,1 7,3 46 25 55 30 SW 0,1 0,0
06.11.2019 19:00:00 -0,1 -0,2 0,2 1,3 3,1 7,3 36 19 50 27 SW - 0,0
06.11.2019 18:00:00 -0,2 -0,4 0,1 1,5 3,1 7,3 39 21 49 26 SW 0,1 0,0
06.11.2019 17:00:00 -0,2 -0,3 0,1 1,9 3,1 7,3 30 16 43 23 SW 0,1 0,0
06.11.2019 16:00:00 -0,4 -0,7 0,3 2,4 3,0 7,3 29 15 38 21 WSW 0,2 0,0

tt = temperature
td = dewpoint
tt 5cm = temperature 5cm
tt -5cm = temperature -5cm
tt -20cm = temperature -20cm
tt -100cm = temperature -100cm
ff = wind speed
fx = gusts
dd = wind direction
vv = visibility
rr = precipitation

Next stations